Nearby METAR Reports

 

KICL - Clarinda, Iowa, USA
Distance from station: N 49mi, 79km
Updated: Mon, 20-May-2019 10:35pm CDT
Overcast
Overcast
 Wind from E
Wind: E 14 mph , 22 km/h, Gust: 22 mph , 35 km/h
Temperature: 48°F , 9°C
Wind Chill: 42°F , 6°C
Dew Point: 45°F , 7°C
Humidity: 87%
Barometer: 29.94 inHg , 1013.9 hPa
Clouds: Overcast
Visibility: 10 miles , 16 km
Cloud details: Mostly cloudy 1400 ft
Overcast 6000 ft
2019/05/21 03:35 KICL 210335Z AUTO 08012G19KT 060V140 10SM BKN014 OVC060 09/07 A2994 RMK AO2
KDSM - Des Moines, Iowa, USA
Distance from station: NNE 122mi, 196km
Updated: Mon, 20-May-2019 9:54pm CDT
Overcast
Overcast
 Wind from E
Wind: E 15 mph , 24 km/h, Gust: 23 mph , 37 km/h
Temperature: 50°F , 10°C
Wind Chill: 45°F , 7°C
Dew Point: 43°F , 6°C
Humidity: 76%
Barometer: 30.00 inHg , 1015.9 hPa
Clouds: Overcast
Visibility: 10 miles , 16 km
Cloud details: Few Clouds 7000 ft
Overcast 8500 ft
2019/05/21 02:54 KDSM 210254Z 10013G20KT 10SM FEW070 OVC085 10/06 A3000 RMK AO2 RAE02 SLP162 P0000 60000 T01000061 58026
KFNB - Falls City, Nebraska, USA
Distance from station: W 50mi, 80km
Updated: Mon, 20-May-2019 9:53pm CDT
Light rain, Overcast
Light rain, Overcast
 Wind from E
Wind: E 24 mph , 39 km/h, Gust: 32 mph , 52 km/h
Temperature: 48°F , 9°C
Wind Chill: 40°F , 4°C
Dew Point: 45°F , 7°C
Humidity: 87%
Barometer: 29.84 inHg , 1010.5 hPa
Summary: Light rain
Clouds: Overcast
Visibility: 10 miles , 16 km
Cloud details: Overcast 900 ft
2019/05/21 02:53 KFNB 210253Z AUTO 08021G28KT 10SM -RA OVC009 09/07 A2984 RMK AO2 PK WND 07028/0251 PRESFR SLP106 P0001 60004 T00890072 58024 TSNO
 
KMCI - Kansas City, Missouri, USA
Distance from station: S 65mi, 104km
Updated: Mon, 20-May-2019 9:53pm CDT
Nearby thunderstorm, Rain, Mist, Overcast
Nearby thunderstorm, Rain, Mist, Overcast
 Wind from E
Wind: E 15 mph , 24 km/h, Gust: 28 mph , 44 km/h
Temperature: 48°F , 9°C
Wind Chill: 42°F , 6°C
Dew Point: 46°F , 8°C
Humidity: 94%
Barometer: 29.93 inHg , 1013.5 hPa
Summary: Nearby thunderstorm, Rain, Mist
Clouds: Overcast
Visibility: 4 miles , 6 km
Cloud details: Partly cloudy 900 ft
Partly cloudy 4000 ft
Overcast 6000 ft
2019/05/21 02:53 KMCI 210253Z 09013G24KT 4SM VCTS RA BR SCT009 SCT040CB OVC060 09/08 A2993 RMK AO2 PK WND 07039/0212 LTG DSNT SW PRESRR SLP134 TS VC SE-SW N-NE MOV NE P0049 60110 T00890078 55016
KOMA - Omaha, Nebraska, USA
Distance from station: NNW 105mi, 169km
Updated: Mon, 20-May-2019 9:52pm CDT
Overcast
Overcast
 Wind from E
Wind: E 12 mph , 19 km/h
Temperature: 52°F , 11°C
Dew Point: 43°F , 6°C
Humidity: 72%
Barometer: 29.95 inHg , 1014.2 hPa
Clouds: Overcast
Visibility: 10 miles , 16 km
Cloud details: Few Clouds 2000 ft
Partly cloudy 9000 ft
Overcast 15000 ft
2019/05/21 02:52 KOMA 210252Z 09010KT 10SM FEW020 SCT090 OVC150 11/06 A2995 RMK AO2 SLP144 T01110056 58011
KRDK - Red Oak, Iowa, USA
Distance from station: N 70mi, 112km
Updated: Mon, 20-May-2019 10:35pm CDT
Overcast
Overcast
 Wind from ENE
Wind: ENE 16 mph , 26 km/h, Gust: 26 mph , 43 km/h
Temperature: 48°F , 9°C
Wind Chill: 42°F , 6°C
Dew Point: 45°F , 7°C
Humidity: 87%
Barometer: 29.93 inHg , 1013.5 hPa
Clouds: Overcast
Visibility: 10 miles , 16 km
Cloud details: Overcast 6000 ft
2019/05/21 03:35 KRDK 210335Z AUTO 07014G23KT 10SM OVC060 09/07 A2993 RMK AO2
 
KSTJ - Saint Joseph, Missouri, USA
Distance from station: SW 23mi, 37km
Updated: Mon, 20-May-2019 9:53pm CDT
Light rain, Mist, Overcast
Light rain, Mist, Overcast
 Wind from ESE
Wind: ESE 26 mph , 43 km/h, Gust: 38 mph , 61 km/h
Temperature: 48°F , 9°C
Wind Chill: 40°F , 4°C
Dew Point: 46°F , 8°C
Humidity: 94%
Barometer: 29.83 inHg , 1010.2 hPa
Summary: Light rain, Mist
Clouds: Overcast
Visibility: 6 miles , 10 km
Cloud details: Overcast 10000 ft
2019/05/21 02:53 KSTJ 210253Z AUTO 11023G33KT 6SM -RA BR OVC100 09/08 A2983 RMK AO2 PK WND 11033/0251 PRESFR SLP102 P0030 60074 T00890083 58056
KTOP - Topeka, Kansas, USA
Distance from station: SW 85mi, 137km
Updated: Mon, 20-May-2019 10:32pm CDT
Light thunderstorm, Rain, Overcast
Light thunderstorm, Rain, Overcast
 Wind from E
Wind: E 21 mph , 33 km/h, Gust: 37 mph , 59 km/h
Temperature: 50°F , 10°C
Wind Chill: 43°F , 6°C
Dew Point: 46°F , 8°C
Humidity: 88%
Barometer: 29.77 inHg , 1008.1 hPa
Summary: Light thunderstorm, Rain
Clouds: Overcast
Visibility: 10 miles , 16 km
Cloud details: Mostly cloudy 1100 ft
Overcast 12000 ft
2019/05/21 03:32 KTOP 210332Z AUTO 10018G32KT 10SM -TSRA BKN011 OVC120 10/08 A2977 RMK AO2 PK WND 08039/0257 LTG DSNT E-SW TSB26 CIG 008V013 P0003 T01000078 $
KICT - Wichita, Kansas, USA
Distance from station: SW 215mi, 346km
Updated: Mon, 20-May-2019 9:53pm CDT
Light thunderstorm, Rain, Mist, Mostly cloudy
Light thunderstorm, Rain, Mist, Mostly cloudy
 Wind from E
Wind: E 25 mph , 41 km/h, Gust: 32 mph , 52 km/h
Temperature: 54°F , 12°C
Dew Point: 50°F , 10°C
Humidity: 88%
Barometer: 29.62 inHg , 1003 hPa
Summary: Light thunderstorm, Rain, Mist
Clouds: Mostly cloudy
Visibility: 5 miles , 8 km
Cloud details: Partly cloudy 1000 ft
Partly cloudy 6000 ft
Mostly cloudy 12000 ft
2019/05/21 02:53 KICT 210253Z 10022G28KT 5SM -TSRA BR SCT010CB SCT060 BKN120 12/10 A2962 RMK AO2 PK WND 10029/0206 LTG DSNT NE-S TSE0154B0159 SLP028 OCNL LTGICCC VC ALQDS TS VC ALQDS MOVG NE-S P0013 60032 T01170100 56048